Alte Ems Airfield

DE-0095 · Nedersaksen, Duitsland

METAR historie DE-0095 · Alte Ems Airfield

Hieronder zie je METAR's van de afgelopen dagen. Kies een jaar om door oudere METAR's te bladeren, vanaf het jaar 2007.

5 december 2022

Tijd Code Weer Temp. Zicht Plafond Wind METAR/SPECI
11:47
L
5 °C 3,4 km 300 ft 010° 010° 8 kt SPECI ETWM 051047Z 01008KT 3400 -DZRA BR SCT001 BKN003 BKN006 05/05 Q1018 YLO
11:47
L
5 °C 3,4 km 300 ft 010° 010° 8 kt SPECI ETWM 051047Z 01008KT 3400 -DZRA BR SCT001 BKN003 BKN006 05/05 Q1018 YLO
11:20
I
5 °C 5 km 600 ft 010° 010° 8 kt METAR ETWM 051020Z 01008KT 5000 -DZ BR FEW002 SCT004 BKN006 05/04 Q1019 YLO
10:20
I
5 °C 5 km 700 ft 010° 010° 7 kt METAR ETWM 050920Z 01007KT 5000 -DZ BR SCT002 SCT004 BKN007 05/05 Q1019 GRN
09:20
L
4 °C 3,1 km 100 ft 010° 010° 3 kt METAR ETWM 050820Z 01003KT 3100 -DZ BR BKN001 04/04 Q1018 RED
08:20
I
4 °C 4,2 km 600 ft 020° 020° 7 kt METAR ETWM 050720Z 02007KT 4200 -DZ FEW004 BKN006 04/04 Q1018 YLO
07:42
I
4 °C 6 km 600 ft 020° 020° 7 kt METAR ETWM 050642Z 02007KT 6000 -DZ FEW004 BKN006 04/04 Q1018 YLO
07:20
I
4 °C 4,8 km 500 ft 020° 020° 5 kt METAR ETWM 050620Z 02005KT 4800 -DZ BR BKN005 04/04 Q1018 YLO
06:20
I
4 °C 4,1 km 600 ft 020° 020° 3 kt METAR ETWM 050520Z 02003KT 4100 -DZ BR BKN006 04/03 Q1018 YLO
05:20
U
4 °C 0 m - 040° 040° 3 kt METAR ETWM 050420Z AUTO 04003KT //// // ////// 04/03 Q1018 ///
04:20
U
4 °C 0 m - 030° 030° 4 kt METAR ETWM 050320Z AUTO 03004KT //// // ////// 04/03 Q1018 ///
03:20
U
4 °C 0 m - 040° 040° 6 kt METAR ETWM 050220Z AUTO 04006KT //// // ////// 04/03 Q1018 ///
02:20
U
4 °C 0 m - 030° 030° 6 kt METAR ETWM 050120Z AUTO 03006KT //// // ////// 04/02 Q1018 ///
01:20
U
4 °C 0 m - 040° 040° 5 kt METAR ETWM 050020Z AUTO 04005KT //// // ////// 04/02 Q1018 ///
00:20
U
4 °C 0 m - 030° 030° 6 kt METAR ETWM 042320Z AUTO 03006KT //// // ////// 04/02 Q1018 ///

4 december 2022

Tijd Code Weer Temp. Zicht Plafond Wind METAR/SPECI
23:20
U
3 °C 0 m - 040° 040° 7 kt METAR ETWM 042220Z AUTO 04007KT //// // ////// 03/02 Q1018 ///
22:20
U
3 °C 0 m - 040° 040° 6 kt METAR ETWM 042120Z AUTO 04006KT //// // ////// 03/01 Q1019 ///
21:20
U
3 °C 0 m - 040° 040° 4 kt METAR ETWM 042020Z AUTO 04004KT //// // ////// 03/01 Q1019 ///
20:20
U
3 °C 0 m - 060° 060° 6 kt METAR ETWM 041920Z AUTO 06006KT //// // ////// 03/01 Q1019 ///
19:20
U
2 °C 0 m - 050° 050° 7 kt METAR ETWM 041820Z AUTO 05007KT //// // ////// 02/01 Q1019 ///
18:20
U
2 °C 0 m - 040° 040° 8 kt METAR ETWM 041720Z AUTO 04008KT //// // ////// 02/01 Q1018 ///
17:20
U
2 °C 0 m - 040° 040° 4 kt METAR ETWM 041620Z AUTO 04004KT //// // ////// 02/00 Q1019 ///
16:20
U
2 °C 0 m - 050° 050° 7 kt METAR ETWM 041520Z AUTO 05007KT //// // ////// 02/M00 Q1018 ///
15:20
U
2 °C 0 m - 060° 060° 8 kt METAR ETWM 041420Z AUTO 06008KT //// // ////// 02/M01 Q1018 ///
14:20
U
2 °C 0 m - 050° 050° 8 kt METAR ETWM 041320Z AUTO 05008KT //// // ////// 02/M01 Q1018 ///
13:20
U
2 °C 0 m - 060° 060° 8 kt METAR ETWM 041220Z AUTO 06008KT //// // ////// 02/M01 Q1019 ///
12:20
U
2 °C 0 m - 050° 050° 9 kt METAR ETWM 041120Z AUTO 05009KT //// // ////// 02/M01 Q1019 ///
11:20
U
1 °C 0 m - 050° 050° 7 kt METAR ETWM 041020Z AUTO 05007KT //// // ////// 01/M01 Q1019 ///
10:20
U
0 °C 0 m - 060° 060° 9 kt METAR ETWM 040920Z AUTO 06009KT //// // ////// 00/M01 Q1020 ///
09:20
U
0 °C 0 m - 070° 070° 7 kt METAR ETWM 040820Z AUTO 07007KT //// // ////// M00/M01 Q1020 ///
08:20
U
0 °C 0 m - 060° 060° 6 kt METAR ETWM 040720Z AUTO 06006KT //// // ////// M00/M01 Q1019 ///
07:20
U
-1 °C 0 m - 060° 060° 7 kt METAR ETWM 040620Z AUTO 06007KT //// // ////// M01/M02 Q1019 ///
06:20
U
-1 °C 0 m - 060° 060° 7 kt METAR ETWM 040520Z AUTO 06007KT //// // ////// M01/M02 Q1019 ///
05:20
U
-1 °C 0 m - 060° 060° 7 kt METAR ETWM 040420Z AUTO 06007KT //// // ////// M01/M03 Q1019 ///
04:20
U
-1 °C 0 m - 060° 060° 7 kt METAR ETWM 040320Z AUTO 06007KT //// // ////// M01/M03 Q1019 ///
03:20
U
-1 °C 0 m - 070° 070° 5 kt METAR ETWM 040220Z AUTO 07005KT //// // ////// M01/M03 Q1019 ///
02:20
U
-1 °C 0 m - 060° 060° 7 kt METAR ETWM 040120Z AUTO 06007KT //// // ////// M01/M03 Q1020 ///
01:20
U
-1 °C 0 m - 060° 060° 7 kt METAR ETWM 040020Z AUTO 06007KT //// // ////// M01/M03 Q1020 ///
00:20
U
0 °C 0 m - 070° 070° 8 kt METAR ETWM 032320Z AUTO 07008KT //// // ////// M00/M03 Q1020 ///

3 december 2022

Tijd Code Weer Temp. Zicht Plafond Wind METAR/SPECI
23:20
U
0 °C 0 m - 070° 070° 7 kt METAR ETWM 032220Z AUTO 07007KT //// // ////// M00/M03 Q1020 ///
22:20
U
0 °C 0 m - 070° 070° 7 kt METAR ETWM 032120Z AUTO 07007KT //// // ////// M00/M04 Q1020 ///
21:20
U
0 °C 0 m - 070° 070° 7 kt METAR ETWM 032020Z AUTO 07007KT //// // ////// M00/M04 Q1021 ///
20:20
U
0 °C 0 m - 070° 070° 7 kt METAR ETWM 031920Z AUTO 07007KT //// // ////// M00/M03 Q1021 ///
19:20
U
0 °C 0 m - 060° 060° 8 kt METAR ETWM 031820Z AUTO 06008KT //// // ////// M00/M04 Q1021 ///
18:20
U
0 °C 0 m - 080° 080° 7 kt METAR ETWM 031720Z AUTO 08007KT //// // ////// M00/M04 Q1021 ///
17:20
U
0 °C 0 m - 080° 080° 6 kt METAR ETWM 031620Z AUTO 08006KT //// // ////// M00/M03 Q1021 ///
16:20
U
0 °C 0 m - 070° 070° 6 kt METAR ETWM 031520Z AUTO 07006KT //// // ////// M00/M04 Q1021 ///
15:20
U
0 °C 0 m - 080° 080° 8 kt METAR ETWM 031420Z AUTO 08008KT //// // ////// 00/M04 Q1021 ///
14:20
U
0 °C 0 m - 070° 070° 6 kt METAR ETWM 031320Z AUTO 07006KT //// // ////// 00/M03 Q1022 ///
13:20
U
0 °C 0 m - 050° 050° 8 kt METAR ETWM 031220Z AUTO 05008KT //// // ////// 00/M03 Q1022 ///
12:20
U
0 °C 0 m - 070° 070° 8 kt METAR ETWM 031120Z AUTO 07008KT //// // ////// 00/M03 Q1023 ///
11:20
U
0 °C 0 m - 070° 070° 7 kt METAR ETWM 031020Z AUTO 07007KT //// // ////// 00/M02 Q1023 ///

Wij en derden volgen je internetgedrag op onze website met cookies. Als je doorgaat, gaan we ervan uit dat je akkoord gaat met onze cookiebeleid.